createdAt,value
2019-02-21T00:01:36.297Z,4.64
2019-02-21T00:04:03.892Z,4.55
2019-02-21T00:06:31.231Z,4.45
2019-02-21T00:08:58.399Z,4.38
2019-02-21T00:11:25.581Z,4.31
2019-02-21T00:13:52.853Z,4.25
2019-02-21T00:16:20.049Z,4.27
2019-02-21T00:18:47.215Z,4.25
2019-02-21T00:21:14.526Z,4.35
2019-02-21T00:23:41.584Z,4.41
2019-02-21T00:26:08.860Z,4.36
2019-02-21T00:28:36.064Z,4.28
2019-02-21T00:31:03.262Z,4.15
2019-02-21T00:33:30.536Z,4.08
2019-02-21T00:35:57.654Z,3.95
2019-02-21T00:38:24.907Z,3.92
2019-02-21T00:40:52.291Z,3.92
2019-02-21T00:43:19.603Z,3.92
2019-02-21T00:45:46.756Z,3.87
2019-02-21T00:48:13.838Z,3.88
2019-02-21T00:50:40.976Z,3.83
2019-02-21T00:53:08.127Z,3.85
2019-02-21T00:55:35.282Z,3.82
2019-02-21T00:58:02.536Z,3.75
2019-02-21T01:00:29.801Z,3.71
2019-02-21T01:02:56.967Z,3.59
2019-02-21T01:05:24.194Z,3.46
2019-02-21T01:07:51.352Z,3.42
2019-02-21T01:10:18.810Z,3.42
2019-02-21T01:12:46.130Z,3.37
2019-02-21T01:15:13.420Z,3.32
2019-02-21T01:17:40.618Z,3.22
2019-02-21T01:20:07.921Z,3.19
2019-02-21T01:22:35.381Z,3.19
2019-02-21T01:25:03.054Z,3.18
2019-02-21T01:27:30.621Z,3.15
2019-02-21T01:29:57.932Z,3.17
2019-02-21T01:32:25.091Z,3.24
2019-02-21T01:34:52.381Z,3.27
2019-02-21T01:37:20.039Z,3.27
2019-02-21T01:39:47.239Z,3.31
2019-02-21T01:42:14.426Z,3.17
2019-02-21T01:44:41.677Z,3.09
2019-02-21T01:47:08.740Z,3.13
2019-02-21T01:49:36.283Z,3.11
2019-02-21T01:52:03.470Z,3.00
2019-02-21T01:54:30.735Z,2.93
2019-02-21T01:56:57.934Z,2.83
2019-02-21T01:59:25.481Z,2.77
2019-02-21T02:01:52.715Z,2.75
2019-02-21T02:04:19.869Z,2.73
2019-02-21T02:06:47.419Z,2.73
2019-02-21T02:09:14.583Z,2.82
2019-02-21T02:11:41.898Z,2.90
2019-02-21T02:14:09.145Z,2.85
2019-02-21T02:16:36.365Z,2.84
2019-02-21T02:19:03.603Z,2.77
2019-02-21T02:21:30.746Z,2.74
2019-02-21T02:23:57.898Z,2.84
2019-02-21T02:26:25.261Z,2.90
2019-02-21T02:28:52.420Z,2.84
2019-02-21T02:31:23.427Z,2.76
2019-02-21T02:33:48.876Z,2.67
2019-02-21T02:36:16.346Z,2.52
2019-02-21T02:38:43.519Z,2.41
2019-02-21T02:41:10.958Z,2.37
2019-02-21T02:43:38.214Z,2.46
2019-02-21T02:46:05.364Z,2.68
2019-02-21T02:48:32.632Z,2.87
2019-02-21T02:50:59.698Z,3.14
2019-02-21T02:53:26.845Z,3.34
2019-02-21T02:55:54.065Z,3.59
2019-02-21T02:58:21.297Z,3.87
2019-02-21T03:00:49.181Z,4.03
2019-02-21T03:03:16.448Z,4.15
2019-02-21T03:05:43.580Z,4.26
2019-02-21T03:08:10.820Z,4.36
2019-02-21T03:10:37.953Z,4.47
2019-02-21T03:13:05.231Z,4.59
2019-02-21T03:15:32.296Z,4.62
2019-02-21T03:17:59.374Z,4.66
2019-02-21T03:20:26.529Z,4.71
2019-02-21T03:22:53.724Z,4.74
2019-02-21T03:25:21.944Z,4.78
2019-02-21T03:27:49.172Z,4.84
2019-02-21T03:30:16.369Z,4.85
2019-02-21T03:32:44.028Z,4.85
2019-02-21T03:35:11.266Z,4.86
2019-02-21T03:37:38.493Z,4.88
2019-02-21T03:40:06.537Z,4.92
2019-02-21T03:42:33.740Z,5.01
2019-02-21T03:45:00.940Z,5.04
2019-02-21T03:47:28.178Z,5.02
2019-02-21T03:49:55.352Z,5.03
2019-02-21T03:52:22.529Z,5.01
2019-02-21T03:54:49.735Z,5.01
2019-02-21T03:57:17.112Z,5.03
2019-02-21T03:59:44.305Z,5.03
2019-02-21T04:02:11.503Z,4.99
2019-02-21T04:04:39.678Z,4.89
2019-02-21T04:07:06.980Z,4.78
2019-02-21T04:09:34.215Z,4.66
2019-02-21T04:12:01.499Z,4.57
2019-02-21T04:14:29.808Z,4.57
2019-02-21T04:16:57.390Z,4.62
2019-02-21T04:19:24.652Z,4.67
2019-02-21T04:21:51.884Z,4.64
2019-02-21T04:24:19.202Z,4.53
2019-02-21T04:26:46.384Z,4.31
2019-02-21T04:29:13.550Z,4.09
2019-02-21T04:31:40.768Z,3.93
2019-02-21T04:34:08.289Z,3.81
2019-02-21T04:36:35.435Z,3.74
2019-02-21T04:39:04.087Z,3.62
2019-02-21T04:41:31.451Z,3.61
2019-02-21T04:43:58.629Z,3.47
2019-02-21T04:46:25.886Z,3.46
2019-02-21T04:48:54.948Z,3.34
2019-02-21T04:51:22.195Z,3.31
2019-02-21T04:53:49.487Z,3.23
2019-02-21T04:56:16.664Z,3.14
2019-02-21T04:58:43.913Z,3.11
2019-02-21T05:01:11.099Z,3.02
2019-02-21T05:03:38.381Z,2.98
2019-02-21T05:06:05.530Z,3.06
2019-02-21T05:08:32.840Z,2.97
2019-02-21T05:11:00.308Z,2.99
2019-02-21T05:13:27.600Z,2.95
2019-02-21T05:15:54.863Z,2.82
2019-02-21T05:18:22.037Z,2.72
2019-02-21T05:20:49.088Z,2.84
2019-02-21T05:23:16.412Z,3.09
2019-02-21T05:25:43.542Z,3.17
2019-02-21T05:28:30.651Z,3.20
2019-02-21T05:31:29.268Z,3.19
2019-02-21T05:34:01.497Z,3.15
2019-02-21T05:36:54.546Z,3.06
2019-02-21T05:39:37.032Z,2.98
2019-02-21T05:42:12.957Z,2.88
2019-02-21T05:44:45.240Z,2.77
2019-02-21T05:47:30.680Z,2.81
2019-02-21T05:50:23.399Z,2.86
2019-02-21T05:53:11.186Z,2.85
2019-02-21T05:55:47.589Z,2.84
2019-02-21T05:58:38.777Z,2.83
2019-02-21T06:01:12.512Z,2.81
2019-02-21T06:03:56.830Z,2.75
2019-02-21T06:06:43.656Z,2.67
2019-02-21T06:09:30.409Z,2.66
2019-02-21T06:12:12.501Z,2.66
2019-02-21T06:15:18.342Z,2.62
2019-02-21T06:18:05.139Z,2.64
2019-02-21T06:20:50.208Z,2.58
2019-02-21T06:23:39.311Z,2.62
2019-02-21T06:26:20.126Z,2.82
2019-02-21T06:28:54.584Z,2.81
2019-02-21T06:31:22.116Z,2.69
2019-02-21T06:33:49.695Z,2.61
2019-02-21T06:36:17.005Z,2.60
2019-02-21T06:38:44.477Z,2.59
2019-02-21T06:41:11.991Z,2.57
2019-02-21T06:43:39.241Z,2.55
2019-02-21T06:46:06.809Z,2.58
2019-02-21T06:48:34.946Z,2.66
2019-02-21T06:51:02.127Z,2.76
2019-02-21T06:53:29.389Z,2.96
2019-02-21T06:55:56.572Z,3.13
2019-02-21T06:58:24.144Z,3.28
2019-02-21T07:00:51.440Z,3.47
2019-02-21T07:03:19.189Z,3.73
2019-02-21T07:05:46.366Z,3.99
2019-02-21T07:08:13.581Z,4.22
2019-02-21T07:10:40.645Z,4.66
2019-02-21T07:13:07.956Z,5.15
2019-02-21T07:15:35.109Z,5.51
2019-02-21T07:18:02.201Z,5.89
2019-02-21T07:20:30.721Z,6.05
2019-02-21T07:22:57.934Z,6.20
2019-02-21T07:25:44.852Z,6.23
2019-02-21T07:28:15.586Z,6.30
2019-02-21T07:30:42.934Z,6.47
2019-02-21T07:33:10.296Z,6.75
2019-02-21T07:35:37.389Z,7.34
2019-02-21T07:38:04.563Z,8.03
2019-02-21T07:40:31.776Z,8.90
2019-02-21T07:42:58.970Z,10.04
2019-02-21T07:45:26.280Z,10.95
2019-02-21T07:47:53.444Z,11.58
2019-02-21T07:50:23.065Z,12.28
2019-02-21T07:52:50.160Z,13.78
2019-02-21T07:55:17.338Z,14.29
2019-02-21T07:57:44.556Z,13.86
2019-02-21T08:00:12.338Z,13.84
2019-02-21T08:02:39.484Z,13.97
2019-02-21T08:05:06.846Z,13.97
2019-02-21T08:07:33.953Z,13.47
2019-02-21T08:10:01.163Z,12.74
2019-02-21T08:12:28.360Z,12.09
2019-02-21T08:14:56.366Z,11.55
2019-02-21T08:17:23.598Z,10.93
2019-02-21T08:19:50.792Z,10.49
2019-02-21T08:22:17.972Z,10.27
2019-02-21T08:24:46.068Z,9.98
2019-02-21T08:27:13.372Z,9.85
2019-02-21T08:29:40.537Z,9.58
2019-02-21T08:32:08.370Z,9.43
2019-02-21T08:34:39.752Z,9.31
2019-02-21T08:37:08.837Z,9.25
2019-02-21T08:39:36.138Z,9.20
2019-02-21T08:42:03.372Z,9.19
2019-02-21T08:44:30.578Z,9.20
2019-02-21T08:46:57.816Z,9.30
2019-02-21T08:49:24.982Z,9.44
2019-02-21T08:51:54.854Z,9.48
2019-02-21T08:54:21.334Z,9.50
2019-02-21T08:56:48.584Z,9.64
2019-02-21T08:59:15.744Z,9.74
2019-02-21T09:01:42.962Z,9.86
2019-02-21T09:04:24.115Z,9.84
2019-02-21T09:06:39.312Z,9.80
2019-02-21T09:09:07.136Z,9.85
2019-02-21T09:11:34.344Z,9.89
2019-02-21T09:14:01.484Z,10.04
2019-02-21T09:16:28.914Z,10.41
2019-02-21T09:18:56.069Z,10.69
2019-02-21T09:21:23.248Z,10.98
2019-02-21T09:23:50.438Z,11.22
2019-02-21T09:26:17.552Z,11.48
2019-02-21T09:28:44.731Z,11.75
2019-02-21T09:31:11.902Z,11.80
2019-02-21T09:33:39.432Z,11.79
2019-02-21T09:36:07.191Z,11.91
2019-02-21T09:38:34.965Z,11.79
2019-02-21T09:41:02.790Z,11.60
2019-02-21T09:43:29.980Z,11.45
2019-02-21T09:45:57.176Z,11.54
2019-02-21T09:48:24.362Z,11.82
2019-02-21T09:50:51.448Z,11.99
2019-02-21T09:53:18.655Z,11.97
2019-02-21T09:55:45.809Z,11.93
2019-02-21T09:58:13.150Z,11.63
2019-02-21T10:00:40.325Z,11.64
2019-02-21T10:03:07.591Z,11.91
2019-02-21T10:05:34.791Z,12.27
2019-02-21T10:08:01.974Z,12.56
2019-02-21T10:10:29.139Z,12.51
2019-02-21T10:12:56.573Z,12.26
2019-02-21T10:15:23.823Z,12.19
2019-02-21T10:17:51.082Z,12.23
2019-02-21T10:20:18.630Z,12.21
2019-02-21T10:22:45.863Z,12.09
2019-02-21T10:25:23.126Z,11.91
2019-02-21T10:27:50.261Z,11.75
2019-02-21T10:30:18.729Z,11.67
2019-02-21T10:32:45.879Z,11.83
2019-02-21T10:35:13.237Z,12.14
2019-02-21T10:37:40.504Z,12.41
2019-02-21T10:40:09.133Z,12.58
2019-02-21T10:42:36.581Z,12.80
2019-02-21T10:45:05.584Z,12.97
2019-02-21T10:47:32.865Z,13.22
2019-02-21T10:50:00.332Z,13.40
2019-02-21T10:52:27.756Z,13.65
2019-02-21T10:54:54.851Z,13.93
2019-02-21T10:57:22.056Z,13.94
2019-02-21T10:59:49.571Z,13.89
2019-02-21T11:02:17.227Z,13.82
2019-02-21T11:04:54.376Z,13.84
2019-02-21T11:07:13.947Z,14.01
2019-02-21T11:09:41.235Z,14.28
2019-02-21T11:12:08.867Z,14.43
2019-02-21T11:14:46.919Z,14.35
2019-02-21T11:17:05.115Z,14.16
2019-02-21T11:19:32.456Z,13.97
2019-02-21T11:21:59.601Z,13.95
2019-02-21T11:24:26.829Z,14.16
2019-02-21T11:26:54.041Z,14.50
2019-02-21T11:29:21.225Z,14.73
2019-02-21T11:31:48.439Z,14.94
2019-02-21T11:34:15.652Z,14.88
2019-02-21T11:36:42.815Z,14.84
2019-02-21T11:39:10.159Z,14.84
2019-02-21T11:41:37.252Z,14.55
2019-02-21T11:44:04.484Z,14.31
2019-02-21T11:46:31.698Z,14.17
2019-02-21T11:48:58.898Z,13.95
2019-02-21T11:51:26.080Z,13.96
2019-02-21T11:53:53.730Z,14.24
2019-02-21T11:56:20.912Z,14.59
2019-02-21T11:58:48.100Z,14.79
2019-02-21T12:01:15.294Z,14.78
2019-02-21T12:03:42.530Z,14.55
2019-02-21T12:06:09.720Z,14.30
2019-02-21T12:08:36.932Z,14.00
2019-02-21T12:11:04.144Z,13.62
2019-02-21T12:13:31.358Z,13.37
2019-02-21T12:15:59.157Z,13.39
2019-02-21T12:18:26.494Z,13.81
2019-02-21T12:20:53.610Z,14.42
2019-02-21T12:23:20.814Z,14.67
2019-02-21T12:25:48.373Z,14.59
2019-02-21T12:28:15.620Z,14.60
2019-02-21T12:30:42.822Z,14.56
2019-02-21T12:33:10.030Z,14.53
2019-02-21T12:35:37.243Z,14.54
2019-02-21T12:38:04.510Z,14.44
2019-02-21T12:40:31.799Z,14.41
2019-02-21T12:42:59.419Z,14.46
2019-02-21T12:45:26.557Z,14.51
2019-02-21T12:47:54.300Z,14.53
2019-02-21T12:50:22.287Z,14.63
2019-02-21T12:52:49.475Z,14.83
2019-02-21T12:55:27.350Z,15.10
2019-02-21T12:57:45.955Z,15.00
2019-02-21T13:00:15.977Z,14.80
2019-02-21T13:02:44.085Z,14.70
2019-02-21T13:05:11.760Z,14.68
2019-02-21T13:07:39.460Z,14.76
2019-02-21T13:10:09.585Z,14.81
2019-02-21T13:12:36.868Z,15.04
2019-02-21T13:15:04.878Z,15.10
2019-02-21T13:17:32.682Z,15.05
2019-02-21T13:19:59.854Z,15.01
2019-02-21T13:22:27.149Z,15.00
2019-02-21T13:24:54.727Z,15.14
2019-02-21T13:27:21.955Z,15.39
2019-02-21T13:29:49.548Z,15.57
2019-02-21T13:32:16.837Z,15.71
2019-02-21T13:34:43.960Z,15.88
2019-02-21T13:37:11.149Z,15.79
2019-02-21T13:39:38.382Z,15.73
2019-02-21T13:42:05.675Z,15.60
2019-02-21T13:44:34.010Z,15.57
2019-02-21T13:47:01.124Z,15.49
2019-02-21T13:49:28.407Z,15.28
2019-02-21T13:51:55.553Z,14.87
2019-02-21T13:54:22.729Z,14.49
2019-02-21T13:56:49.999Z,14.26
2019-02-21T13:59:17.184Z,14.07
2019-02-21T14:01:44.588Z,13.95
2019-02-21T14:04:11.770Z,13.86
2019-02-21T14:06:38.940Z,13.82
2019-02-21T14:09:06.751Z,13.75
2019-02-21T14:11:33.958Z,13.80
2019-02-21T14:14:01.131Z,13.79
2019-02-21T14:16:28.356Z,13.65
2019-02-21T14:18:56.119Z,13.53
2019-02-21T14:21:23.353Z,13.34
2019-02-21T14:23:50.524Z,13.16
2019-02-21T14:26:17.761Z,13.06
2019-02-21T14:28:44.886Z,12.99
2019-02-21T14:31:12.252Z,12.93
2019-02-21T14:33:39.353Z,12.89
2019-02-21T14:36:15.108Z,12.85
2019-02-21T14:38:37.905Z,12.84
2019-02-21T14:41:05.367Z,12.80
2019-02-21T14:43:32.606Z,12.75
2019-02-21T14:46:02.504Z,12.71
2019-02-21T14:48:29.885Z,12.65
2019-02-21T14:51:09.346Z,12.64
2019-02-21T14:53:36.561Z,12.59
2019-02-21T14:56:44.889Z,12.52
2019-02-21T15:02:32.711Z,12.38
2019-02-21T15:10:41.262Z,12.26
2019-02-21T15:13:08.495Z,12.12
2019-02-21T15:15:36.012Z,12.00
2019-02-21T15:18:43.943Z,11.86
2019-02-21T15:21:11.139Z,11.77
2019-02-21T15:26:37.677Z,11.51
2019-02-21T15:29:05.133Z,11.44
2019-02-21T15:35:12.339Z,11.64
2019-02-21T15:38:00.542Z,11.84
2019-02-21T15:41:29.032Z,12.04
2019-02-21T15:43:56.586Z,12.18
2019-02-21T15:46:23.806Z,12.27
2019-02-21T15:48:51.143Z,12.32
2019-02-21T15:51:18.824Z,12.34
2019-02-21T15:53:46.451Z,12.35
2019-02-21T15:56:13.671Z,12.38
2019-02-21T15:58:40.855Z,12.38
2019-02-21T16:01:08.058Z,12.36
2019-02-21T16:03:35.696Z,12.33
2019-02-21T16:06:02.810Z,12.32
2019-02-21T16:08:29.997Z,12.28
2019-02-21T16:10:57.264Z,12.21
2019-02-21T16:13:24.913Z,12.19
2019-02-21T16:15:52.444Z,12.17
2019-02-21T16:18:19.674Z,12.12
2019-02-21T16:20:47.194Z,12.07
2019-02-21T16:23:14.316Z,12.03
2019-02-21T16:25:41.617Z,12.00
2019-02-21T16:28:09.137Z,11.94
2019-02-21T16:30:36.315Z,11.87
2019-02-21T16:33:03.517Z,11.80
2019-02-21T16:35:30.576Z,11.77
2019-02-21T16:37:57.747Z,11.74
2019-02-21T16:40:25.646Z,11.68
2019-02-21T16:42:52.948Z,11.64
2019-02-21T16:45:20.132Z,11.59
2019-02-21T16:47:47.338Z,11.58
2019-02-21T16:50:14.521Z,11.56
2019-02-21T16:52:41.851Z,11.55
2019-02-21T16:55:11.470Z,11.55
2019-02-21T16:57:38.675Z,11.52
2019-02-21T17:00:07.284Z,11.46
2019-02-21T17:02:34.471Z,11.47
2019-02-21T17:05:01.568Z,11.43
2019-02-21T17:07:28.875Z,11.40
2019-02-21T17:09:56.088Z,11.35
2019-02-21T17:12:23.639Z,11.34
2019-02-21T17:14:51.216Z,11.32
2019-02-21T17:17:19.001Z,11.30
2019-02-21T17:19:46.208Z,11.29
2019-02-21T17:22:13.413Z,11.29
2019-02-21T17:24:40.588Z,11.30
2019-02-21T17:27:07.775Z,11.29
2019-02-21T17:29:35.058Z,11.29
2019-02-21T17:32:02.289Z,11.31
2019-02-21T17:34:29.586Z,11.31
2019-02-21T17:36:56.847Z,11.27
2019-02-21T17:39:24.067Z,11.18
2019-02-21T17:41:51.246Z,11.12
2019-02-21T17:44:18.468Z,11.07
2019-02-21T17:46:45.553Z,11.02
2019-02-21T17:49:12.714Z,10.99
2019-02-21T17:51:40.457Z,10.96
2019-02-21T17:54:07.679Z,10.95
2019-02-21T17:56:35.149Z,10.94
2019-02-21T17:59:02.633Z,10.92
2019-02-21T18:01:29.966Z,10.93
2019-02-21T18:03:57.494Z,10.93
2019-02-21T18:06:24.737Z,10.94
2019-02-21T18:08:54.893Z,10.93
2019-02-21T18:11:21.406Z,10.92
2019-02-21T18:13:48.631Z,10.93
2019-02-21T18:16:15.858Z,10.91
2019-02-21T18:18:43.040Z,10.88
2019-02-21T18:21:10.448Z,10.87
2019-02-21T18:23:37.669Z,10.85
2019-02-21T18:26:11.962Z,10.83
2019-02-21T18:28:39.115Z,10.85
2019-02-21T18:31:06.401Z,10.91
2019-02-21T18:33:33.497Z,10.85
2019-02-21T18:36:00.754Z,10.78
2019-02-21T18:38:27.975Z,10.71
2019-02-21T18:40:55.283Z,10.65
2019-02-21T18:43:23.137Z,10.62
2019-02-21T18:45:51.051Z,10.61
2019-02-21T18:48:18.303Z,10.64
2019-02-21T18:50:45.501Z,10.64
2019-02-21T18:53:13.089Z,10.64
2019-02-21T18:55:40.660Z,10.64
2019-02-21T18:58:08.273Z,10.66
2019-02-21T19:00:35.491Z,10.67
2019-02-21T19:03:02.681Z,10.69
2019-02-21T19:05:35.918Z,10.71
2019-02-21T19:08:05.264Z,10.74
2019-02-21T19:10:28.208Z,10.75
2019-02-21T19:12:55.622Z,10.78
2019-02-21T19:15:25.075Z,10.79
2019-02-21T19:17:52.190Z,10.79
2019-02-21T19:20:19.506Z,10.76
2019-02-21T19:22:46.674Z,10.77
2019-02-21T19:25:14.060Z,10.78
2019-02-21T19:27:41.301Z,10.79
2019-02-21T19:30:12.408Z,10.82
2019-02-21T19:32:39.806Z,10.84
2019-02-21T19:35:07.396Z,10.82
2019-02-21T19:37:34.598Z,10.79
2019-02-21T19:40:01.787Z,10.78
2019-02-21T19:42:29.319Z,10.77
2019-02-21T19:44:56.608Z,10.78
2019-02-21T19:47:23.770Z,10.79
2019-02-21T19:49:51.357Z,10.79
2019-02-21T19:52:18.443Z,10.80
2019-02-21T19:54:45.652Z,10.82
2019-02-21T19:57:12.852Z,10.81
2019-02-21T19:59:40.082Z,10.81
2019-02-21T20:02:07.344Z,10.81
2019-02-21T20:04:34.568Z,10.80
2019-02-21T20:07:01.786Z,10.78
2019-02-21T20:09:29.095Z,10.77
2019-02-21T20:11:56.600Z,10.76
2019-02-21T20:14:24.830Z,10.73
2019-02-21T20:16:52.028Z,10.74
2019-02-21T20:19:19.273Z,10.74
2019-02-21T20:21:46.451Z,10.72
2019-02-21T20:24:14.174Z,10.72
2019-02-21T20:26:41.376Z,10.73
2019-02-21T20:29:08.610Z,10.74
2019-02-21T20:31:35.808Z,10.76
2019-02-21T20:34:03.559Z,10.77
2019-02-21T20:36:30.811Z,10.75
2019-02-21T20:38:57.974Z,10.74
2019-02-21T20:41:25.297Z,10.72
2019-02-21T20:43:53.616Z,10.71
2019-02-21T20:46:20.796Z,10.68
2019-02-21T20:48:48.099Z,10.68
2019-02-21T20:51:15.362Z,10.67
2019-02-21T20:53:42.553Z,10.66
2019-02-21T20:56:10.176Z,10.65
2019-02-21T20:58:37.399Z,10.63
2019-02-21T21:01:06.841Z,10.60
2019-02-21T21:03:34.102Z,10.55
2019-02-21T21:06:01.468Z,10.54
2019-02-21T21:08:28.819Z,10.49
2019-02-21T21:10:56.063Z,10.47
2019-02-21T21:13:23.392Z,10.44
2019-02-21T21:15:50.492Z,10.43
2019-02-21T21:18:17.719Z,10.41
2019-02-21T21:20:44.793Z,10.42
2019-02-21T21:23:12.350Z,10.45
2019-02-21T21:25:39.716Z,10.49
2019-02-21T21:28:06.887Z,10.51
2019-02-21T21:30:34.102Z,10.48
2019-02-21T21:33:01.225Z,10.46
2019-02-21T21:35:28.767Z,10.46
2019-02-21T21:37:55.953Z,10.48
2019-02-21T21:40:23.189Z,10.49
2019-02-21T21:42:50.730Z,10.47
2019-02-21T21:45:18.462Z,10.45
2019-02-21T21:47:45.565Z,10.43
2019-02-21T21:50:14.243Z,10.43
2019-02-21T21:52:41.495Z,10.45
2019-02-21T21:55:08.942Z,10.44
2019-02-21T21:57:36.534Z,10.42
2019-02-21T22:00:05.373Z,10.56
2019-02-21T22:02:32.579Z,10.54
2019-02-21T22:05:00.316Z,10.53
2019-02-21T22:07:27.363Z,10.53
2019-02-21T22:09:54.755Z,10.53
2019-02-21T22:12:21.935Z,10.54
2019-02-21T22:14:49.509Z,10.57
2019-02-21T22:17:16.629Z,10.60
2019-02-21T22:19:43.809Z,10.61
2019-02-21T22:22:10.993Z,10.64
2019-02-21T22:24:38.331Z,10.79
2019-02-21T22:27:05.603Z,10.87
2019-02-21T22:29:32.805Z,10.84
2019-02-21T22:32:00.105Z,10.82
2019-02-21T22:34:27.317Z,10.83
2019-02-21T22:36:54.510Z,10.87
2019-02-21T22:39:21.732Z,10.86
2019-02-21T22:41:48.892Z,10.85
2019-02-21T22:44:16.002Z,10.85
2019-02-21T22:46:43.911Z,10.87
2019-02-21T22:49:11.086Z,10.88
2019-02-21T22:51:38.271Z,10.90
2019-02-21T22:54:05.597Z,10.92
2019-02-21T22:56:32.776Z,10.91
2019-02-21T22:59:00.044Z,10.89
2019-02-21T23:01:30.479Z,10.97
2019-02-21T23:04:38.163Z,10.77
2019-02-21T23:07:19.812Z,10.60
2019-02-21T23:09:46.972Z,10.34
2019-02-21T23:12:14.276Z,10.14
2019-02-21T23:14:41.567Z,9.97
2019-02-21T23:17:08.674Z,9.84
2019-02-21T23:19:35.885Z,9.81
2019-02-21T23:22:03.109Z,9.83
2019-02-21T23:24:30.269Z,9.91
2019-02-21T23:26:57.450Z,9.91
2019-02-21T23:29:24.638Z,9.90
2019-02-21T23:31:51.942Z,9.90
2019-02-21T23:34:29.902Z,9.92
2019-02-21T23:36:57.119Z,9.94
2019-02-21T23:39:24.331Z,9.97
2019-02-21T23:41:51.399Z,10.00
2019-02-21T23:44:18.685Z,10.00
2019-02-21T23:46:47.203Z,10.11
2019-02-21T23:49:14.529Z,10.14
2019-02-21T23:51:41.696Z,10.26
2019-02-21T23:54:08.882Z,10.26
2019-02-21T23:56:36.114Z,10.22
2019-02-21T23:59:03.774Z,10.14
